Time;durP1;ratioP1;P1;durP2;ratioP2;P2;SDS_P1;SDS_P2;PMS_P1;PMS_P2;Temp;Humidity;BMP_temperature;BMP_pressure;BME280_temperature;BME280_humidity;BME280_pressure;Samples;Min_cycle;Max_cycle;Signal;HPM_P1;HPM_P2
2023/10/12 07:01:27;;;;;;;1.37;1.37;;;17.20;99.90;20.20;101053.00;;;;6182759;22;1419018;-70
2023/10/12 07:03:54;;;;;;;1.03;1.03;;;17.20;99.90;20.70;101056.00;;;;6226658;22;20174;-71
2023/10/12 07:06:20;;;;;;;2.27;2.13;;;17.30;99.90;20.50;101063.00;;;;6251638;22;20153;-70
2023/10/12 07:08:46;;;;;;;1.57;1.57;;;17.50;99.90;20.50;101049.00;;;;6225833;22;20214;-70
2023/10/12 07:11:14;;;;;;;1.97;1.87;;;17.40;99.90;20.30;101054.00;;;;6250066;22;20203;-70
2023/10/12 07:13:45;;;;;;;1.40;1.40;;;17.30;99.90;20.20;101050.00;;;;6251359;22;20208;-70
2023/10/12 07:16:16;;;;;;;16.33;5.63;;;17.30;99.90;20.00;101058.00;;;;6227004;22;20204;-70
2023/10/12 07:18:43;;;;;;;25.87;6.63;;;17.10;99.90;20.20;101047.00;;;;6251764;22;20218;-70
2023/10/12 07:21:21;;;;;;;1.90;1.80;;;17.20;99.90;20.60;101046.00;;;;6277229;22;20145;-70
2023/10/12 07:23:57;;;;;;;2.93;2.73;;;17.30;99.90;20.30;101052.00;;;;6253121;22;20581;-70
2023/10/12 07:26:30;;;;;;;1.00;1.00;;;17.30;99.90;20.20;101054.00;;;;6252067;22;20156;-70
2023/10/12 07:28:57;;;;;;;1.13;1.13;;;17.40;99.90;20.50;101061.00;;;;6277464;22;20139;-70
2023/10/12 07:31:31;;;;;;;1.23;1.23;;;17.30;99.90;20.10;101056.00;;;;6250362;22;20204;-69
2023/10/12 07:39:17;;;;;;;1.80;1.73;;;17.30;99.90;20.00;101064.00;;;;6278461;22;20142;-69
2023/10/12 07:41:52;;;;;;;3.03;2.57;;;17.30;99.90;20.20;101052.00;;;;6227341;22;20163;-70
2023/10/12 07:44:20;;;;;;;1.23;1.20;;;17.30;99.90;20.40;101052.00;;;;6252984;22;20564;-69
2023/10/12 07:46:46;;;;;;;1.10;1.10;;;17.40;99.90;20.50;101050.00;;;;6225404;22;20548;-70
2023/10/12 07:52:38;;;;;;;1.87;1.87;;;17.40;99.90;20.40;101063.00;;;;6254201;22;20154;-71
2023/10/12 07:57:15;;;;;;;1.70;1.60;;;17.50;99.90;20.40;101043.00;;;;6251294;22;20231;-71
2023/10/12 08:02:56;;;;;;;1.00;1.00;;;17.40;99.90;21.00;101073.00;;;;6252539;22;20182;-71
2023/10/12 08:11:27;;;;;;;1.53;1.43;;;17.60;99.90;20.80;101080.00;;;;6252916;22;20230;-71
2023/10/12 08:13:55;;;;;;;0.90;0.90;;;17.60;99.90;20.90;101075.00;;;;6277565;22;20145;-70
2023/10/12 08:16:40;;;;;;;0.90;0.90;;;17.60;99.90;20.00;101073.00;;;;6250591;22;20473;-70
2023/10/12 08:21:38;;;;;;;1.00;1.00;;;17.40;99.90;20.50;101047.00;;;;6277033;22;20544;-70
2023/10/12 08:32:16;;;;;;;0.90;0.90;;;17.50;99.90;20.80;101079.00;;;;6249861;22;20158;-71
2023/10/12 08:35:36;;;;;;;6.30;5.97;;;17.70;99.90;21.00;101077.00;;;;6250653;22;20140;-71
2023/10/12 08:38:40;;;;;;;0.73;0.73;;;17.90;99.90;20.30;101049.00;;;;6254420;22;20608;-70
2023/10/12 08:44:22;;;;;;;0.80;0.80;;;17.90;99.90;21.20;101089.00;;;;6277547;22;20165;-71
2023/10/12 08:47:09;;;;;;;0.97;0.97;;;17.90;99.90;20.40;101083.00;;;;6250259;22;20160;-71
2023/10/12 08:52:52;;;;;;;0.50;0.50;;;17.70;99.90;20.40;101048.00;;;;6250750;22;20162;-72
2023/10/12 08:55:24;;;;;;;1.33;1.23;;;17.60;99.90;20.60;101038.00;;;;6242370;22;20166;-74
2023/10/12 08:58:11;;;;;;;0.70;0.70;;;17.60;99.90;21.30;101062.00;;;;6277086;22;20469;-68
2023/10/12 09:03:25;;;;;;;1.03;1.03;;;18.10;99.90;21.20;101040.00;;;;6252372;22;20212;-67
2023/10/12 09:05:54;;;;;;;1.43;1.07;;;18.10;99.90;21.30;101046.00;;;;6249029;22;20141;-69
2023/10/12 09:11:13;;;;;;;0.40;0.40;;;18.00;99.90;20.60;101075.00;;;;6248448;22;20150;-69
2023/10/12 09:13:48;;;;;;;2.03;1.93;;;17.90;99.90;20.60;101078.00;;;;6253241;22;20146;-67
2023/10/12 09:16:18;;;;;;;0.30;0.30;;;17.80;99.90;21.30;101079.00;;;;6275951;22;20518;-68
2023/10/12 09:18:47;;;;;;;0.57;0.57;;;18.00;99.90;21.10;101077.00;;;;6249653;22;20187;-68
2023/10/12 09:24:37;;;;;;;0.53;0.53;;;18.10;99.90;21.30;101071.00;;;;6248905;22;20230;-67
2023/10/12 09:26:47;;;;;;;0.83;0.50;;;18.20;99.90;20.60;101070.00;;;;6232005;22;20590;-66
2023/10/12 09:29:31;;;;;;;1.07;1.00;;;18.00;99.90;20.20;101074.00;;;;6250184;22;20159;-64
2023/10/12 09:37:33;;;;;;;0.47;0.47;;;17.60;99.90;21.00;101062.00;;;;6250222;22;20507;-65
2023/10/12 09:40:35;;;;;;;0.70;0.47;;;17.80;99.90;21.00;101048.00;;;;6276645;22;20644;-70
2023/10/12 09:43:14;;;;;;;1.90;1.40;;;17.90;99.90;21.10;101057.00;;;;6255078;22;20187;-69
2023/10/12 09:45:58;;;;;;;0.52;0.52;;;18.00;99.90;20.40;101064.00;;;;6225017;22;20166;-69
2023/10/12 09:48:38;;;;;;;0.57;0.57;;;17.80;99.90;21.00;101066.00;;;;6225486;22;20156;-69
2023/10/12 09:51:16;;;;;;;0.30;0.30;;;17.70;99.90;20.90;101061.00;;;;6277031;22;20175;-70
2023/10/12 09:53:57;;;;;;;0.43;0.43;;;17.80;99.90;20.30;101059.00;;;;6224199;22;20243;-70
2023/10/12 09:56:28;;;;;;;1.03;1.03;;;17.60;99.90;20.40;101052.00;;;;6276287;22;20217;-70
2023/10/12 09:59:13;;;;;;;0.97;0.97;;;17.50;99.90;20.90;101060.00;;;;6222622;22;20584;-70
2023/10/12 10:07:25;;;;;;;0.50;0.50;;;17.70;99.90;21.40;101056.00;;;;6253840;22;20228;-69
2023/10/12 10:09:58;;;;;;;0.40;0.40;;;17.90;99.90;21.90;101058.00;;;;6224826;22;20160;-70
2023/10/12 10:12:36;;;;;;;0.50;0.50;;;18.20;99.90;21.20;101050.00;;;;6224089;22;20178;-70
2023/10/12 10:15:14;;;;;;;0.90;0.90;;;18.20;99.90;20.80;101057.00;;;;6225844;22;20563;-69
2023/10/12 10:18:06;;;;;;;0.60;0.60;;;17.90;99.90;21.30;101072.00;;;;6224851;22;20160;-70
2023/10/12 10:20:46;;;;;;;105.77;7.73;;;18.00;99.90;22.90;101054.00;;;;6254411;22;20167;-71
2023/10/12 10:33:29;;;;;;;0.50;0.50;;;18.00;99.90;20.70;101114.00;;;;5125157;27;1437120;-70
2023/10/12 10:35:55;;;;;;;0.40;0.40;;;18.10;99.90;21.60;101095.00;;;;5133228;27;20193;-70
2023/10/12 10:38:55;;;;;;;1.30;1.27;;;18.30;99.90;21.40;101082.00;;;;5149503;27;20238;-70
2023/10/12 10:44:26;;;;;;;0.90;0.90;;;18.40;99.90;22.00;101071.00;;;;5134533;27;20181;-69
2023/10/12 10:47:06;;;;;;;0.50;0.50;;;18.50;99.90;21.60;101060.00;;;;5132832;27;20261;-69
2023/10/12 10:49:32;;;;;;;0.50;0.50;;;18.40;99.90;21.80;101068.00;;;;5131265;27;20251;-69
2023/10/12 10:54:39;;;;;;;0.70;0.70;;;18.30;99.90;21.00;101060.00;;;;5133233;27;20620;-67
2023/10/12 10:57:15;;;;;;;2.93;1.70;;;18.20;99.90;21.10;101066.00;;;;5133035;27;20631;-67
2023/10/12 10:59:49;;;;;;;1.50;1.13;;;18.20;99.90;20.50;101062.00;;;;5133927;27;20615;-68
2023/10/12 11:02:53;;;;;;;4.17;3.87;;;18.10;99.90;20.70;101066.00;;;;5100723;27;20190;-67
2023/10/12 11:06:21;;;;;;;0.50;0.50;;;18.10;99.90;21.30;101064.00;;;;5108057;28;20201;-67
2023/10/12 11:12:42;;;;;;;1.25;1.25;;;18.30;99.90;21.60;101068.00;;;;5126608;27;20221;-67
2023/10/12 11:16:20;;;;;;;7.37;2.87;;;18.50;99.90;20.50;101068.00;;;;5100423;28;20187;-69
2023/10/12 11:19:27;;;;;;;0.50;0.50;;;18.10;99.90;21.50;101061.00;;;;5127204;27;20651;-68
2023/10/12 11:21:53;;;;;;;1.30;1.27;;;18.20;99.90;21.90;101061.00;;;;5112945;28;20182;-69
2023/10/12 11:24:53;;;;;;;0.50;0.50;;;18.50;99.90;21.40;101064.00;;;;5131041;27;20628;-69
2023/10/12 11:27:39;;;;;;;1.20;1.10;;;18.30;99.90;21.50;101063.00;;;;5125445;27;20641;-69
2023/10/12 11:30:42;;;;;;;1.77;1.67;;;18.20;99.90;21.60;101053.00;;;;5110426;27;20189;-69
2023/10/12 11:33:33;;;;;;;0.50;0.50;;;18.30;99.90;21.40;101057.00;;;;5101362;27;20223;-67
2023/10/12 11:36:03;;;;;;;5.03;1.90;;;18.30;99.90;21.20;101047.00;;;;5111038;27;20285;-67
2023/10/12 11:38:49;;;;;;;1.33;1.23;;;18.20;99.90;20.80;101037.00;;;;5124242;27;20213;-70
2023/10/12 11:41:20;;;;;;;2.97;0.67;;;18.10;99.90;20.30;101045.00;;;;5109892;27;20178;-70
2023/10/12 11:43:53;;;;;;;0.50;0.50;;;17.90;99.90;20.40;101040.00;;;;5142011;27;20192;-67
2023/10/12 11:47:00;;;;;;;1.17;1.10;;;17.90;99.90;20.40;101004.00;;;;5118497;27;20193;-67
2023/10/12 11:50:03;;;;;;;0.67;0.67;;;17.90;99.90;20.40;101034.00;;;;5097461;27;20277;-67
2023/10/12 11:52:54;;;;;;;4.87;4.30;;;17.80;99.90;19.80;101036.00;;;;5118344;27;20210;-67
2023/10/12 11:55:27;;;;;;;1.00;1.00;;;17.70;99.90;20.50;101025.00;;;;5083218;27;20178;-67
2023/10/12 11:58:10;;;;;;;5.13;4.77;;;17.80;99.90;20.50;101024.00;;;;5119671;27;20635;-67
2023/10/12 12:01:14;;;;;;;1.17;0.80;;;17.90;99.90;20.60;101016.00;;;;5125452;27;20192;-67
2023/10/12 12:04:03;;;;;;;1.50;1.40;;;17.80;99.90;20.30;101014.00;;;;5108247;27;20186;-67
2023/10/12 12:06:32;;;;;;;0.80;0.80;;;17.80;99.90;20.80;101024.00;;;;5075671;27;20223;-67
2023/10/12 12:08:59;;;;;;;1.90;1.77;;;17.90;99.90;20.40;101021.00;;;;5115529;27;20524;-67
2023/10/12 12:11:38;;;;;;;1.15;1.15;;;17.80;99.90;20.50;101025.00;;;;5109167;27;20568;-68
2023/10/12 12:14:22;;;;;;;1.63;1.53;;;17.90;99.90;20.70;101022.00;;;;5115738;27;20254;-67
2023/10/12 12:17:15;;;;;;;0.60;0.60;;;17.90;99.90;20.90;101007.00;;;;5100622;27;20216;-68
2023/10/12 12:19:43;;;;;;;2.50;2.30;;;17.90;99.90;20.50;101016.00;;;;5118350;27;20260;-67
2023/10/12 12:22:16;;;;;;;1.10;1.10;;;17.90;99.90;20.40;101016.00;;;;5117697;27;20179;-67
2023/10/12 12:24:44;;;;;;;0.70;0.70;;;17.80;99.90;20.30;101021.00;;;;5101693;27;20187;-66
2023/10/12 12:30:35;;;;;;;1.65;1.58;;;18.00;99.90;20.80;101018.00;;;;5117554;27;20182;-67
2023/10/12 12:33:19;;;;;;;2.83;2.00;;;18.10;99.90;20.50;101013.00;;;;5117163;27;20581;-67
2023/10/12 12:36:08;;;;;;;1.20;1.17;;;18.10;99.90;20.90;101006.00;;;;5126634;27;20659;-67
2023/10/12 12:38:44;;;;;;;1.20;1.20;;;18.10;99.90;21.70;100991.00;;;;5109342;27;20690;-66
2023/10/12 12:41:19;;;;;;;1.93;1.83;;;18.50;99.90;20.50;101001.00;;;;5118860;27;20539;-66
2023/10/12 12:43:50;;;;;;;1.27;1.10;;;18.20;99.90;21.00;100998.00;;;;5118326;27;20273;-66
2023/10/12 12:46:18;;;;;;;0.67;0.67;;;18.20;99.90;21.30;100992.00;;;;5097068;28;20244;-67
2023/10/12 12:48:47;;;;;;;2.87;1.93;;;18.30;99.90;21.40;100991.00;;;;5115447;27;20178;-67
2023/10/12 12:51:16;;;;;;;0.50;0.50;;;18.40;99.90;20.90;100985.00;;;;5099620;27;20244;-67
2023/10/12 12:53:53;;;;;;;2.33;2.13;;;18.20;99.90;20.70;100989.00;;;;5099592;27;20195;-67
2023/10/12 12:56:59;;;;;;;2.40;2.10;;;18.20;99.90;21.00;100997.00;;;;5100296;27;20198;-67
2023/10/12 12:59:57;;;;;;;0.80;0.80;;;18.10;99.90;21.20;100961.00;;;;5103943;27;20233;-68
2023/10/12 13:03:00;;;;;;;1.17;0.93;;;18.20;99.90;22.00;100995.00;;;;5079918;27;20225;-67
2023/10/12 13:06:33;;;;;;;1.50;1.43;;;18.50;99.90;20.70;100994.00;;;;5116729;27;20270;-67
2023/10/12 13:09:05;;;;;;;1.87;1.77;;;18.10;99.90;20.80;100989.00;;;;5083714;27;20190;-66
2023/10/12 13:11:44;;;;;;;1.07;0.97;;;18.00;99.90;21.50;100981.00;;;;5117668;27;20202;-67
2023/10/12 13:14:19;;;;;;;1.23;1.13;;;18.30;99.90;20.40;100987.00;;;;5099860;27;20209;-68
2023/10/12 13:17:09;;;;;;;0.97;0.97;;;18.00;99.90;20.30;100994.00;;;;5109731;28;20194;-67
2023/10/12 13:19:38;;;;;;;1.87;1.77;;;17.90;99.90;20.00;101006.00;;;;5085018;27;20656;-68
2023/10/12 13:22:03;;;;;;;0.70;0.70;;;17.80;99.90;20.50;100983.00;;;;5115089;27;20640;-67
2023/10/12 13:24:35;;;;;;;1.63;1.37;;;17.70;99.90;20.90;101010.00;;;;5102211;28;20277;-67
2023/10/12 13:27:11;;;;;;;0.60;0.60;;;17.80;99.90;21.00;101009.00;;;;5105898;27;20178;-67
2023/10/12 13:29:37;;;;;;;1.70;1.33;;;17.90;99.90;20.60;101004.00;;;;5107659;27;20180;-67
2023/10/12 13:32:08;;;;;;;0.83;0.83;;;17.90;99.90;20.80;100993.00;;;;5098402;27;20671;-67
2023/10/12 13:34:34;;;;;;;6.57;1.67;;;17.80;99.90;20.00;101009.00;;;;5098367;27;20624;-67
2023/10/12 13:37:04;;;;;;;2.13;2.03;;;17.70;99.90;21.00;101007.00;;;;5115856;27;20397;-67
2023/10/12 13:39:32;;;;;;;0.93;0.93;;;17.90;99.90;20.40;101015.00;;;;5115820;27;20210;-67
2023/10/12 13:41:59;;;;;;;1.80;1.80;;;17.80;99.90;21.60;101013.00;;;;5116034;27;20197;-67
2023/10/12 13:44:29;;;;;;;0.70;0.70;;;18.10;99.90;20.90;101015.00;;;;5134318;27;20192;-67
2023/10/12 13:47:19;;;;;;;1.50;1.10;;;18.00;99.90;21.40;101017.00;;;;5114557;27;20191;-68
2023/10/12 13:50:14;;;;;;;0.60;0.60;;;18.20;99.90;21.20;101014.00;;;;5118605;27;20552;-67
2023/10/12 13:52:43;;;;;;;0.70;0.70;;;18.30;99.90;21.80;101008.00;;;;5088407;27;20241;-69
2023/10/12 13:55:14;;;;;;;0.90;0.90;;;18.30;99.90;21.90;100998.00;;;;5082436;28;20297;-68
2023/10/12 13:57:55;;;;;;;0.70;0.70;;;18.60;99.90;22.00;100998.00;;;;5096922;27;20260;-69
2023/10/12 14:00:34;;;;;;;0.80;0.80;;;18.50;99.90;21.50;101000.00;;;;5100319;27;20535;-69
2023/10/12 14:03:13;;;;;;;1.57;1.43;;;18.50;99.90;20.70;100997.00;;;;5102729;27;20186;-69
2023/10/12 14:05:47;;;;;;;0.70;0.70;;;18.30;99.90;21.20;100999.00;;;;5100381;27;20186;-69
2023/10/12 14:08:16;;;;;;;6.63;2.53;;;18.30;99.90;20.80;101007.00;;;;5115693;27;20183;-68
2023/10/12 14:10:49;;;;;;;1.20;1.20;;;18.20;99.90;21.00;101007.00;;;;5098788;27;20301;-69
2023/10/12 14:13:18;;;;;;;0.65;0.65;;;18.20;99.90;21.60;101002.00;;;;5115472;27;20221;-69
2023/10/12 14:15:50;;;;;;;0.93;0.93;;;18.30;99.90;21.30;100999.00;;;;5133933;27;20191;-69
2023/10/12 14:18:28;;;;;;;1.05;1.05;;;18.40;99.90;20.80;100987.00;;;;5098750;27;20659;-69
2023/10/12 14:20:57;;;;;;;0.88;0.88;;;18.10;99.90;21.10;101003.00;;;;5086137;28;20190;-69
2023/10/12 14:23:32;;;;;;;1.63;1.57;;;18.20;99.90;20.90;100988.00;;;;5097893;27;20247;-67
2023/10/12 14:26:04;;;;;;;0.52;0.52;;;18.20;99.90;20.90;101002.00;;;;5098952;27;20194;-67
2023/10/12 14:28:35;;;;;;;0.70;0.70;;;18.10;99.90;21.60;100993.00;;;;5116199;28;20217;-67
2023/10/12 14:31:06;;;;;;;1.15;1.15;;;18.40;99.90;21.40;100980.00;;;;5116077;28;20265;-67
2023/10/12 14:33:35;;;;;;;1.87;1.77;;;18.40;99.90;21.40;100956.00;;;;5095288;28;20245;-67
2023/10/12 14:36:06;;;;;;;0.90;0.90;;;18.40;99.90;22.00;100978.00;;;;5098229;28;20190;-68
2023/10/12 14:38:33;;;;;;;1.67;1.57;;;18.40;99.90;21.60;100968.00;;;;5106768;28;20248;-70
2023/10/12 14:41:05;;;;;;;0.70;0.70;;;18.60;99.90;22.10;100971.00;;;;5107956;28;20186;-67
2023/10/12 14:43:36;;;;;;;0.90;0.90;;;18.70;99.90;21.20;100969.00;;;;5133903;27;20641;-67
2023/10/12 14:46:04;;;;;;;0.60;0.60;;;18.70;99.90;22.10;100966.00;;;;5111231;28;20183;-67
2023/10/12 14:48:31;;;;;;;0.70;0.70;;;18.90;99.90;22.80;100966.00;;;;5106345;28;20218;-67
2023/10/12 14:51:07;;;;;;;1.00;1.00;;;19.10;99.90;22.50;100953.00;;;;5115474;28;20189;-68
2023/10/12 14:53:35;;;;;;;0.70;0.70;;;19.30;99.90;22.20;100963.00;;;;5104579;28;20582;-67
2023/10/12 14:56:05;;;;;;;1.17;1.17;;;19.10;99.90;22.50;100963.00;;;;5102750;28;20171;-67
2023/10/12 14:58:32;;;;;;;0.60;0.60;;;19.20;99.90;22.50;100960.00;;;;5115759;28;20179;-67
2023/10/12 15:00:58;;;;;;;1.67;1.58;;;19.10;99.90;21.60;100963.00;;;;5115124;28;20201;-68
2023/10/12 15:03:26;;;;;;;0.60;0.60;;;18.90;99.90;22.00;100970.00;;;;5115581;28;20235;-68
2023/10/12 15:05:55;;;;;;;0.60;0.60;;;18.90;99.90;22.10;100967.00;;;;5098751;28;20198;-67
2023/10/12 15:08:26;;;;;;;0.80;0.80;;;19.00;99.90;21.80;100975.00;;;;5133162;28;20629;-67
2023/10/12 15:10:55;;;;;;;0.82;0.82;;;18.90;99.90;22.00;100969.00;;;;5114810;28;20268;-68
2023/10/12 15:13:26;;;;;;;0.60;0.60;;;18.90;99.90;22.50;100970.00;;;;5115105;28;20210;-68
2023/10/12 15:15:53;;;;;;;1.15;1.15;;;19.00;99.90;22.70;100962.00;;;;5109104;28;20546;-68
2023/10/12 15:18:42;;;;;;;1.00;1.00;;;19.20;99.90;21.60;100964.00;;;;5095524;28;20191;-68
2023/10/12 15:21:39;;;;;;;0.60;0.60;;;19.00;99.90;22.10;100972.00;;;;5132407;27;20203;-68
2023/10/12 15:24:27;;;;;;;0.60;0.60;;;18.90;99.90;22.80;100983.00;;;;5114500;27;20189;-68
2023/10/12 15:27:22;;;;;;;1.70;1.60;;;19.10;99.90;22.00;100971.00;;;;5084913;28;20661;-68
2023/10/12 15:30:11;;;;;;;0.70;0.70;;;19.20;99.90;22.50;100980.00;;;;5132723;27;20218;-68
2023/10/12 15:32:46;;;;;;;1.10;1.10;;;19.10;99.90;21.60;100976.00;;;;5104342;27;20246;-68
2023/10/12 15:35:30;;;;;;;0.60;0.60;;;19.10;99.90;21.60;100987.00;;;;5092862;27;20700;-68
2023/10/12 15:38:03;;;;;;;1.00;1.00;;;18.80;99.90;21.80;100978.00;;;;5099970;27;20259;-67
2023/10/12 15:40:36;;;;;;;0.67;0.67;;;18.80;99.90;22.80;100980.00;;;;5118608;27;20179;-68
2023/10/12 15:43:16;;;;;;;0.70;0.70;;;19.00;99.90;22.80;100969.00;;;;5136506;27;20199;-68
2023/10/12 15:45:55;;;;;;;5.77;3.40;;;19.20;99.90;22.90;100968.00;;;;5104893;28;20543;-68
2023/10/12 15:48:26;;;;;;;0.70;0.70;;;19.30;99.90;22.60;100963.00;;;;5098832;27;20960;-68
2023/10/12 15:51:23;;;;;;;0.90;0.90;;;19.20;99.90;23.10;100962.00;;;;5118563;27;20175;-68
2023/10/12 15:53:52;;;;;;;0.80;0.80;;;19.50;99.90;23.10;100962.00;;;;5118732;27;20174;-68
2023/10/12 15:56:21;;;;;;;0.80;0.80;;;19.60;99.90;23.10;100967.00;;;;5115218;27;20192;-68
2023/10/12 15:58:50;;;;;;;0.60;0.60;;;19.60;99.90;22.30;100949.00;;;;5100995;27;20195;-68
2023/10/12 16:01:19;;;;;;;0.60;0.60;;;19.30;99.90;22.20;100967.00;;;;5117707;27;20179;-68
2023/10/12 16:03:57;;;;;;;0.75;0.75;;;19.10;99.90;22.40;100969.00;;;;5118235;27;20542;-68
2023/10/12 16:06:24;;;;;;;0.95;0.95;;;19.10;99.90;22.00;100939.00;;;;5118359;27;20194;-68
2023/10/12 16:08:52;;;;;;;0.77;0.77;;;19.00;99.90;22.20;100902.00;;;;5099856;27;20188;-68
2023/10/12 16:14:40;;;;;;;0.80;0.80;;;19.00;99.90;21.90;100973.00;;;;5052579;28;20559;-68
2023/10/12 16:17:27;;;;;;;0.70;0.70;;;19.00;99.90;21.80;100972.00;;;;5113661;27;20180;-68
2023/10/12 16:20:10;;;;;;;0.82;0.82;;;18.90;99.90;21.70;100974.00;;;;5102598;27;20202;-69
2023/10/12 16:22:53;;;;;;;1.20;0.90;;;18.80;99.90;22.10;100955.00;;;;5112416;27;20644;-69
2023/10/12 16:25:31;;;;;;;0.93;0.93;;;19.00;99.90;22.80;100976.00;;;;5101772;27;20648;-69
2023/10/12 16:27:58;;;;;;;0.60;0.60;;;19.10;99.90;21.90;100978.00;;;;5104285;27;20274;-69
2023/10/12 16:30:34;;;;;;;5.55;4.00;;;19.00;99.90;22.20;100979.00;;;;5118180;27;20190;-69
2023/10/12 16:33:05;;;;;;;0.80;0.80;;;19.00;99.90;21.80;100968.00;;;;5116573;27;20260;-69
2023/10/12 16:35:40;;;;;;;0.55;0.55;;;18.80;99.90;21.60;100985.00;;;;5097811;28;20217;-69
2023/10/12 16:38:12;;;;;;;0.60;0.60;;;18.70;99.90;21.80;100984.00;;;;5117374;27;20194;-69
2023/10/12 16:41:09;;;;;;;0.50;0.50;;;18.70;99.90;22.60;100985.00;;;;5101063;27;20179;-69
2023/10/12 16:43:54;;;;;;;0.60;0.60;;;19.00;99.90;22.60;100975.00;;;;5130515;27;20238;-69
2023/10/12 16:46:32;;;;;;;0.70;0.70;;;19.20;99.90;22.20;100977.00;;;;5095693;28;20677;-69
2023/10/12 16:49:39;;;;;;;1.10;1.08;;;19.10;99.90;22.10;100988.00;;;;5114520;27;20180;-69
2023/10/12 16:52:07;;;;;;;0.73;0.73;;;19.10;99.90;22.70;100980.00;;;;5092710;27;20511;-69
2023/10/12 16:55:04;;;;;;;0.70;0.70;;;19.20;99.90;23.30;100979.00;;;;5117631;27;20179;-69
2023/10/12 16:57:36;;;;;;;0.70;0.70;;;19.40;99.90;22.90;100970.00;;;;5050839;28;20579;-69
2023/10/12 17:00:07;;;;;;;1.10;1.10;;;19.50;99.90;21.50;100978.00;;;;5095749;27;20187;-69
2023/10/12 17:02:44;;;;;;;0.60;0.60;;;19.10;99.90;22.40;100985.00;;;;5107475;27;20179;-69
2023/10/12 17:05:16;;;;;;;0.60;0.60;;;19.10;99.90;22.70;100984.00;;;;5117388;27;20179;-69
2023/10/12 17:07:52;;;;;;;0.60;0.60;;;19.20;99.90;21.70;100956.00;;;;5100599;27;20183;-68
2023/10/12 17:10:28;;;;;;;0.77;0.77;;;19.10;99.90;22.00;100978.00;;;;5116793;27;20202;-68
2023/10/12 17:12:59;;;;;;;0.68;0.68;;;19.00;99.90;21.80;100977.00;;;;5091752;27;20213;-69
2023/10/12 17:15:25;;;;;;;1.02;1.02;;;19.00;99.90;21.80;100980.00;;;;5097725;27;20281;-69
2023/10/12 17:17:56;;;;;;;0.60;0.60;;;19.00;99.90;22.80;100969.00;;;;5115525;27;20250;-69
2023/10/12 17:20:26;;;;;;;0.70;0.70;;;19.20;99.90;22.10;100977.00;;;;5102480;27;20195;-69
2023/10/12 17:22:57;;;;;;;1.08;1.05;;;19.10;99.90;22.70;100985.00;;;;5099576;27;20188;-69
2023/10/12 17:25:26;;;;;;;1.23;1.23;;;19.30;99.90;22.40;100989.00;;;;5135147;27;20187;-69
2023/10/12 17:28:14;;;;;;;1.83;1.73;;;19.20;99.90;21.40;100992.00;;;;5116202;27;20183;-68
2023/10/12 17:30:54;;;;;;;0.50;0.50;;;18.90;99.90;21.50;101005.00;;;;5106374;27;20186;-69
2023/10/12 17:33:48;;;;;;;0.50;0.50;;;18.70;99.90;23.10;101006.00;;;;5103816;27;20287;-69
2023/10/12 17:36:33;;;;;;;2.25;2.15;;;19.30;99.90;22.30;100994.00;;;;5104750;27;20187;-69
2023/10/12 17:39:28;;;;;;;0.60;0.60;;;19.10;99.90;22.40;100992.00;;;;5096716;27;20191;-69
2023/10/12 17:42:00;;;;;;;1.25;1.25;;;19.20;99.90;23.10;101001.00;;;;5097939;27;20195;-69
2023/10/12 17:44:42;;;;;;;0.60;0.60;;;19.50;99.90;23.20;101003.00;;;;5106133;27;20252;-69
2023/10/12 17:47:30;;;;;;;0.60;0.60;;;19.50;99.90;23.30;100998.00;;;;5116109;27;20713;-69
2023/10/12 17:50:37;;;;;;;0.70;0.70;;;19.60;99.90;23.10;101005.00;;;;5115951;27;20179;-69
2023/10/12 17:53:26;;;;;;;0.60;0.60;;;19.70;99.90;23.50;101003.00;;;;5082383;27;20214;-69
2023/10/12 17:55:57;;;;;;;0.70;0.70;;;19.70;99.90;23.60;101013.00;;;;5116689;27;20543;-69
2023/10/12 17:58:23;;;;;;;1.37;1.27;;;19.80;99.90;23.30;101019.00;;;;5112112;28;20230;-69
2023/10/12 18:01:11;;;;;;;0.90;0.90;;;19.70;99.90;22.70;101014.00;;;;5107916;27;20183;-69
2023/10/12 18:03:50;;;;;;;1.07;1.07;;;19.70;99.90;22.50;101018.00;;;;5109402;27;20238;-68
2023/10/12 18:06:38;;;;;;;0.60;0.60;;;19.50;99.90;23.20;101011.00;;;;5116366;27;20311;-69
2023/10/12 18:09:21;;;;;;;1.63;1.60;;;19.60;99.90;22.40;101020.00;;;;5099396;27;20186;-69
2023/10/12 18:11:47;;;;;;;0.60;0.60;;;19.30;99.90;22.80;101022.00;;;;5099104;27;20203;-69
2023/10/12 18:14:31;;;;;;;0.50;0.50;;;19.40;99.90;22.50;101019.00;;;;5111779;28;20192;-69
2023/10/12 18:17:11;;;;;;;0.73;0.73;;;19.30;99.90;23.20;101017.00;;;;5096938;27;20199;-69
2023/10/12 18:19:38;;;;;;;0.60;0.60;;;19.60;99.90;23.20;101014.00;;;;5116696;27;20186;-70
2023/10/12 18:22:18;;;;;;;0.50;0.50;;;19.70;99.90;23.20;101016.00;;;;5101385;27;20326;-69
2023/10/12 18:25:21;;;;;;;1.88;1.02;;;19.70;99.90;22.50;101028.00;;;;5123287;27;20529;-69
2023/10/12 18:28:26;;;;;;;1.35;1.13;;;19.40;99.90;21.40;101031.00;;;;5118943;27;20596;-68
2023/10/12 18:31:22;;;;;;;0.40;0.40;;;19.10;99.90;22.10;101047.00;;;;5105364;28;20272;-68
2023/10/12 18:34:12;;;;;;;10.10;6.60;;;19.00;99.90;21.50;101020.00;;;;5092747;28;20188;-68
2023/10/12 18:37:22;;;;;;;0.40;0.40;;;18.90;99.90;22.60;101042.00;;;;5103956;28;20548;-68
2023/10/12 18:39:51;;;;;;;0.93;0.65;;;19.10;99.90;21.90;101033.00;;;;5113683;28;20191;-68
2023/10/12 18:42:20;;;;;;;1.95;1.33;;;19.10;99.90;22.90;101012.00;;;;5115328;28;20202;-68
2023/10/12 18:45:24;;;;;;;0.98;0.95;;;19.30;99.90;22.00;101031.00;;;;5115300;28;20187;-68
2023/10/12 18:47:55;;;;;;;0.40;0.40;;;19.20;99.90;21.50;101039.00;;;;5087084;28;20256;-68
2023/10/12 18:50:32;;;;;;;0.50;0.50;;;19.00;99.90;22.30;101007.00;;;;5115286;28;20188;-68
2023/10/12 18:53:02;;;;;;;0.50;0.50;;;19.10;99.90;22.50;101034.00;;;;5133575;27;20206;-68
2023/10/12 18:55:43;;;;;;;0.60;0.60;;;19.30;99.90;22.80;101035.00;;;;5119455;27;20273;-68
2023/10/12 18:58:18;;;;;;;1.35;1.33;;;19.40;99.90;22.40;101035.00;;;;5102150;27;20183;-67
2023/10/12 19:00:56;;;;;;;0.60;0.60;;;19.20;99.90;23.00;101040.00;;;;5099141;28;20194;-68
2023/10/12 19:03:40;;;;;;;1.30;1.30;;;19.30;99.90;23.20;101036.00;;;;5119093;27;20240;-68
2023/10/12 19:06:15;;;;;;;2.50;1.15;;;19.60;99.90;21.80;101033.00;;;;5094402;27;20282;-68
2023/10/12 19:09:06;;;;;;;0.40;0.40;;;19.20;99.90;22.30;101030.00;;;;5113576;28;20223;-68
2023/10/12 19:11:39;;;;;;;0.57;0.57;;;19.30;99.90;22.40;101039.00;;;;5097109;27;20264;-68
2023/10/12 19:14:41;;;;;;;1.40;1.30;;;19.20;99.90;21.40;101014.00;;;;5098388;28;20195;-68
2023/10/12 19:17:08;;;;;;;0.50;0.50;;;18.90;99.90;22.40;101028.00;;;;5082624;27;20191;-68
2023/10/12 19:19:34;;;;;;;1.08;1.08;;;19.10;99.90;22.10;101029.00;;;;5112824;27;20179;-68
2023/10/12 19:22:24;;;;;;;1.75;0.73;;;19.10;99.90;21.30;101041.00;;;;5097695;28;20192;-68
2023/10/12 19:24:57;;;;;;;1.17;1.05;;;18.90;99.90;21.30;101025.00;;;;5092226;27;20192;-68
2023/10/12 19:27:45;;;;;;;1.50;1.40;;;18.90;99.90;21.00;101015.00;;;;5101509;27;20645;-68
2023/10/12 19:30:23;;;;;;;0.30;0.30;;;18.80;99.90;22.60;101040.00;;;;5115740;27;20184;-68
2023/10/12 19:33:02;;;;;;;1.90;1.80;;;19.10;99.90;22.70;101022.00;;;;5137320;27;20202;-68
2023/10/12 19:35:45;;;;;;;0.85;0.85;;;19.30;99.90;22.00;101022.00;;;;5118081;27;20653;-68
2023/10/12 19:38:20;;;;;;;0.40;0.40;;;19.10;99.90;23.10;101018.00;;;;5100640;27;20241;-67
2023/10/12 19:40:52;;;;;;;0.40;0.40;;;19.40;99.90;22.90;101012.00;;;;5097875;28;20237;-68
2023/10/12 19:43:46;;;;;;;0.65;0.65;;;19.50;99.90;22.70;101016.00;;;;5086598;27;20652;-68
2023/10/12 19:46:19;;;;;;;0.30;0.30;;;19.30;99.90;22.60;100988.00;;;;5016660;28;20818;-68
2023/10/12 19:48:57;;;;;;;0.77;0.63;;;19.50;99.90;22.20;101011.00;;;;5110587;27;20192;-68
2023/10/12 19:51:27;;;;;;;0.52;0.52;;;19.30;99.90;22.40;101008.00;;;;5109625;27;20226;-68
2023/10/12 19:53:56;;;;;;;0.30;0.30;;;19.20;99.90;21.50;101013.00;;;;5114907;27;20179;-68
2023/10/12 19:56:25;;;;;;;0.40;0.40;;;19.00;99.90;22.90;101001.00;;;;5100821;27;20702;-68
2023/10/12 19:59:08;;;;;;;0.40;0.40;;;19.20;99.90;23.10;101006.00;;;;5118486;27;20188;-68